sensor_id;sensor_type;location;lat;lon;timestamp;P1;durP1;ratioP1;P2;durP2;ratioP2
48209;SDS011;33999;52.252;9.616;2022-08-20T00:00:47;2.80;;;1.38;;
48209;SDS011;33999;52.252;9.616;2022-08-20T00:07:07;2.72;;;1.30;;
48209;SDS011;33999;52.252;9.616;2022-08-20T00:10:08;2.83;;;1.33;;
48209;SDS011;33999;52.252;9.616;2022-08-20T00:13:11;3.25;;;1.40;;
48209;SDS011;33999;52.252;9.616;2022-08-20T00:16:19;3.60;;;1.40;;
48209;SDS011;33999;52.252;9.616;2022-08-20T00:19:23;4.25;;;1.60;;
48209;SDS011;33999;52.252;9.616;2022-08-20T00:22:27;2.70;;;1.40;;
48209;SDS011;33999;52.252;9.616;2022-08-20T00:25:29;3.78;;;1.60;;
48209;SDS011;33999;52.252;9.616;2022-08-20T00:28:31;3.00;;;1.50;;
48209;SDS011;33999;52.252;9.616;2022-08-20T00:31:32;3.22;;;1.60;;
48209;SDS011;33999;52.252;9.616;2022-08-20T00:34:38;3.63;;;1.60;;
48209;SDS011;33999;52.252;9.616;2022-08-20T00:37:40;3.95;;;1.58;;
48209;SDS011;33999;52.252;9.616;2022-08-20T00:40:44;3.40;;;1.90;;
48209;SDS011;33999;52.252;9.616;2022-08-20T00:47:04;3.00;;;1.63;;
48209;SDS011;33999;52.252;9.616;2022-08-20T00:50:06;3.10;;;1.65;;
48209;SDS011;33999;52.252;9.616;2022-08-20T00:53:09;2.80;;;1.48;;
48209;SDS011;33999;52.252;9.616;2022-08-20T00:56:10;2.90;;;1.60;;
48209;SDS011;33999;52.252;9.616;2022-08-20T00:59:14;3.15;;;1.65;;
48209;SDS011;33999;52.252;9.616;2022-08-20T01:02:20;2.90;;;1.42;;
48209;SDS011;33999;52.252;9.616;2022-08-20T01:05:23;3.50;;;1.70;;
48209;SDS011;33999;52.252;9.616;2022-08-20T01:08:30;3.55;;;1.70;;
48209;SDS011;33999;52.252;9.616;2022-08-20T01:11:32;3.78;;;1.60;;
48209;SDS011;33999;52.252;9.616;2022-08-20T01:14:39;3.03;;;1.73;;
48209;SDS011;33999;52.252;9.616;2022-08-20T01:17:49;3.65;;;1.80;;
48209;SDS011;33999;52.252;9.616;2022-08-20T01:20:55;3.67;;;1.60;;
48209;SDS011;33999;52.252;9.616;2022-08-20T01:27:07;3.17;;;1.50;;
48209;SDS011;33999;52.252;9.616;2022-08-20T01:30:09;4.55;;;1.60;;
48209;SDS011;33999;52.252;9.616;2022-08-20T01:33:11;3.20;;;1.63;;
48209;SDS011;33999;52.252;9.616;2022-08-20T01:36:15;3.90;;;1.70;;
48209;SDS011;33999;52.252;9.616;2022-08-20T01:39:20;3.33;;;1.48;;
48209;SDS011;33999;52.252;9.616;2022-08-20T01:42:28;3.67;;;1.70;;
48209;SDS011;33999;52.252;9.616;2022-08-20T01:45:57;3.03;;;1.70;;
48209;SDS011;33999;52.252;9.616;2022-08-20T01:48:59;3.83;;;1.73;;
48209;SDS011;33999;52.252;9.616;2022-08-20T01:52:15;3.60;;;1.60;;
48209;SDS011;33999;52.252;9.616;2022-08-20T01:55:24;3.08;;;1.58;;
48209;SDS011;33999;52.252;9.616;2022-08-20T01:58:30;2.92;;;1.52;;
48209;SDS011;33999;52.252;9.616;2022-08-20T02:01:38;3.72;;;1.73;;
48209;SDS011;33999;52.252;9.616;2022-08-20T02:04:47;3.20;;;1.55;;
48209;SDS011;33999;52.252;9.616;2022-08-20T02:07:48;3.70;;;1.83;;
48209;SDS011;33999;52.252;9.616;2022-08-20T02:10:50;3.00;;;1.65;;
48209;SDS011;33999;52.252;9.616;2022-08-20T02:13:52;3.22;;;1.60;;
48209;SDS011;33999;52.252;9.616;2022-08-20T02:16:55;3.58;;;1.80;;
48209;SDS011;33999;52.252;9.616;2022-08-20T02:20:07;3.28;;;1.70;;
48209;SDS011;33999;52.252;9.616;2022-08-20T02:23:13;3.70;;;1.80;;
48209;SDS011;33999;52.252;9.616;2022-08-20T02:26:16;3.33;;;1.70;;
48209;SDS011;33999;52.252;9.616;2022-08-20T02:29:19;3.65;;;1.80;;
48209;SDS011;33999;52.252;9.616;2022-08-20T02:32:21;3.80;;;2.00;;
48209;SDS011;33999;52.252;9.616;2022-08-20T02:35:33;3.20;;;1.70;;
48209;SDS011;33999;52.252;9.616;2022-08-20T02:38:36;3.47;;;1.80;;
48209;SDS011;33999;52.252;9.616;2022-08-20T02:41:39;4.22;;;1.83;;
48209;SDS011;33999;52.252;9.616;2022-08-20T02:44:41;3.70;;;1.80;;
48209;SDS011;33999;52.252;9.616;2022-08-20T02:47:44;4.88;;;1.90;;
48209;SDS011;33999;52.252;9.616;2022-08-20T02:50:50;3.65;;;1.80;;
48209;SDS011;33999;52.252;9.616;2022-08-20T02:53:55;3.35;;;1.73;;
48209;SDS011;33999;52.252;9.616;2022-08-20T02:56:57;3.60;;;1.90;;
48209;SDS011;33999;52.252;9.616;2022-08-20T02:59:58;4.00;;;2.10;;
48209;SDS011;33999;52.252;9.616;2022-08-20T03:03:02;4.28;;;2.05;;
48209;SDS011;33999;52.252;9.616;2022-08-20T03:06:05;4.13;;;2.10;;
48209;SDS011;33999;52.252;9.616;2022-08-20T03:09:08;4.35;;;2.28;;
48209;SDS011;33999;52.252;9.616;2022-08-20T03:12:09;4.07;;;2.10;;
48209;SDS011;33999;52.252;9.616;2022-08-20T03:15:11;3.70;;;2.10;;
48209;SDS011;33999;52.252;9.616;2022-08-20T03:18:18;4.00;;;2.10;;
48209;SDS011;33999;52.252;9.616;2022-08-20T03:21:20;3.53;;;2.00;;
48209;SDS011;33999;52.252;9.616;2022-08-20T03:24:22;3.80;;;2.10;;
48209;SDS011;33999;52.252;9.616;2022-08-20T03:27:24;3.63;;;2.10;;
48209;SDS011;33999;52.252;9.616;2022-08-20T03:30:30;3.90;;;2.20;;
48209;SDS011;33999;52.252;9.616;2022-08-20T03:33:32;4.72;;;2.28;;
48209;SDS011;33999;52.252;9.616;2022-08-20T03:36:35;4.88;;;2.30;;
48209;SDS011;33999;52.252;9.616;2022-08-20T03:39:37;4.45;;;2.55;;
48209;SDS011;33999;52.252;9.616;2022-08-20T03:42:39;4.63;;;2.80;;
48209;SDS011;33999;52.252;9.616;2022-08-20T03:45:42;5.47;;;2.50;;
48209;SDS011;33999;52.252;9.616;2022-08-20T03:48:44;5.22;;;2.33;;
48209;SDS011;33999;52.252;9.616;2022-08-20T03:51:49;4.35;;;2.40;;
48209;SDS011;33999;52.252;9.616;2022-08-20T03:54:58;4.28;;;2.30;;
48209;SDS011;33999;52.252;9.616;2022-08-20T03:58:01;3.95;;;2.08;;
48209;SDS011;33999;52.252;9.616;2022-08-20T04:01:06;3.95;;;2.42;;
48209;SDS011;33999;52.252;9.616;2022-08-20T04:04:28;4.80;;;2.03;;
48209;SDS011;33999;52.252;9.616;2022-08-20T04:07:29;3.78;;;2.05;;
48209;SDS011;33999;52.252;9.616;2022-08-20T04:10:31;4.65;;;2.35;;
48209;SDS011;33999;52.252;9.616;2022-08-20T04:13:33;4.18;;;2.33;;
48209;SDS011;33999;52.252;9.616;2022-08-20T04:16:40;4.05;;;1.98;;
48209;SDS011;33999;52.252;9.616;2022-08-20T04:19:42;3.95;;;2.17;;
48209;SDS011;33999;52.252;9.616;2022-08-20T04:22:44;5.15;;;2.30;;
48209;SDS011;33999;52.252;9.616;2022-08-20T04:25:59;4.40;;;2.30;;
48209;SDS011;33999;52.252;9.616;2022-08-20T04:29:02;3.80;;;2.03;;
48209;SDS011;33999;52.252;9.616;2022-08-20T04:32:04;4.70;;;2.10;;
48209;SDS011;33999;52.252;9.616;2022-08-20T04:35:08;4.35;;;2.40;;
48209;SDS011;33999;52.252;9.616;2022-08-20T04:38:14;4.63;;;2.20;;
48209;SDS011;33999;52.252;9.616;2022-08-20T04:41:20;4.10;;;2.10;;
48209;SDS011;33999;52.252;9.616;2022-08-20T04:44:24;5.13;;;2.60;;
48209;SDS011;33999;52.252;9.616;2022-08-20T04:47:25;6.25;;;2.78;;
48209;SDS011;33999;52.252;9.616;2022-08-20T04:50:36;6.63;;;2.45;;
48209;SDS011;33999;52.252;9.616;2022-08-20T04:53:39;6.05;;;2.85;;
48209;SDS011;33999;52.252;9.616;2022-08-20T04:56:42;6.30;;;3.13;;
48209;SDS011;33999;52.252;9.616;2022-08-20T04:59:43;8.93;;;3.42;;
48209;SDS011;33999;52.252;9.616;2022-08-20T05:02:45;5.68;;;3.30;;
48209;SDS011;33999;52.252;9.616;2022-08-20T05:05:47;5.72;;;3.13;;
48209;SDS011;33999;52.252;9.616;2022-08-20T05:08:49;5.85;;;3.13;;
48209;SDS011;33999;52.252;9.616;2022-08-20T05:11:51;6.20;;;3.25;;
48209;SDS011;33999;52.252;9.616;2022-08-20T05:14:52;6.68;;;3.08;;
48209;SDS011;33999;52.252;9.616;2022-08-20T05:17:58;5.97;;;3.30;;
48209;SDS011;33999;52.252;9.616;2022-08-20T05:21:02;7.47;;;3.40;;
48209;SDS011;33999;52.252;9.616;2022-08-20T05:24:06;7.05;;;3.30;;
48209;SDS011;33999;52.252;9.616;2022-08-20T05:27:08;5.43;;;3.38;;
48209;SDS011;33999;52.252;9.616;2022-08-20T05:30:26;6.45;;;3.55;;
48209;SDS011;33999;52.252;9.616;2022-08-20T05:33:35;5.30;;;3.22;;
48209;SDS011;33999;52.252;9.616;2022-08-20T05:36:38;5.88;;;3.30;;
48209;SDS011;33999;52.252;9.616;2022-08-20T05:39:42;5.15;;;3.13;;
48209;SDS011;33999;52.252;9.616;2022-08-20T05:42:44;5.38;;;3.20;;
48209;SDS011;33999;52.252;9.616;2022-08-20T05:45:46;7.20;;;3.40;;
48209;SDS011;33999;52.252;9.616;2022-08-20T05:48:57;5.07;;;3.10;;
48209;SDS011;33999;52.252;9.616;2022-08-20T05:52:00;6.75;;;3.97;;
48209;SDS011;33999;52.252;9.616;2022-08-20T05:55:03;5.95;;;3.38;;
48209;SDS011;33999;52.252;9.616;2022-08-20T05:58:07;7.05;;;3.67;;
48209;SDS011;33999;52.252;9.616;2022-08-20T06:01:15;5.75;;;3.40;;
48209;SDS011;33999;52.252;9.616;2022-08-20T06:04:16;7.63;;;3.85;;
48209;SDS011;33999;52.252;9.616;2022-08-20T06:07:32;6.15;;;3.97;;
48209;SDS011;33999;52.252;9.616;2022-08-20T06:10:34;6.75;;;4.18;;
48209;SDS011;33999;52.252;9.616;2022-08-20T06:13:37;7.15;;;3.85;;
48209;SDS011;33999;52.252;9.616;2022-08-20T06:16:39;7.93;;;4.90;;
48209;SDS011;33999;52.252;9.616;2022-08-20T06:20:00;7.38;;;4.57;;
48209;SDS011;33999;52.252;9.616;2022-08-20T06:23:04;7.85;;;4.82;;
48209;SDS011;33999;52.252;9.616;2022-08-20T06:26:06;8.85;;;4.68;;
48209;SDS011;33999;52.252;9.616;2022-08-20T06:29:09;7.85;;;4.55;;
48209;SDS011;33999;52.252;9.616;2022-08-20T06:32:11;8.10;;;4.80;;
48209;SDS011;33999;52.252;9.616;2022-08-20T06:35:13;9.25;;;5.65;;
48209;SDS011;33999;52.252;9.616;2022-08-20T06:38:20;7.97;;;5.03;;
48209;SDS011;33999;52.252;9.616;2022-08-20T06:41:21;8.45;;;5.10;;
48209;SDS011;33999;52.252;9.616;2022-08-20T06:44:36;8.05;;;4.50;;
48209;SDS011;33999;52.252;9.616;2022-08-20T06:47:42;7.38;;;4.53;;
48209;SDS011;33999;52.252;9.616;2022-08-20T06:50:45;7.07;;;4.43;;
48209;SDS011;33999;52.252;9.616;2022-08-20T06:53:48;9.05;;;5.18;;
48209;SDS011;33999;52.252;9.616;2022-08-20T06:56:49;7.63;;;4.72;;
48209;SDS011;33999;52.252;9.616;2022-08-20T06:59:54;9.38;;;5.18;;
48209;SDS011;33999;52.252;9.616;2022-08-20T07:02:56;10.23;;;5.30;;
48209;SDS011;33999;52.252;9.616;2022-08-20T07:06:00;7.85;;;5.07;;
48209;SDS011;33999;52.252;9.616;2022-08-20T07:09:02;11.45;;;6.63;;
48209;SDS011;33999;52.252;9.616;2022-08-20T07:12:04;10.32;;;6.88;;
48209;SDS011;33999;52.252;9.616;2022-08-20T07:15:08;11.88;;;7.03;;
48209;SDS011;33999;52.252;9.616;2022-08-20T07:18:11;12.65;;;7.88;;
48209;SDS011;33999;52.252;9.616;2022-08-20T07:21:14;15.07;;;9.20;;
48209;SDS011;33999;52.252;9.616;2022-08-20T07:24:17;14.43;;;9.57;;
48209;SDS011;33999;52.252;9.616;2022-08-20T07:27:20;12.10;;;8.10;;
48209;SDS011;33999;52.252;9.616;2022-08-20T07:30:24;16.33;;;10.32;;
48209;SDS011;33999;52.252;9.616;2022-08-20T07:33:57;15.25;;;9.98;;
48209;SDS011;33999;52.252;9.616;2022-08-20T07:37:00;15.38;;;10.00;;
48209;SDS011;33999;52.252;9.616;2022-08-20T07:40:04;14.77;;;10.00;;
48209;SDS011;33999;52.252;9.616;2022-08-20T07:43:07;14.27;;;9.27;;
48209;SDS011;33999;52.252;9.616;2022-08-20T07:46:12;18.10;;;10.45;;
48209;SDS011;33999;52.252;9.616;2022-08-20T07:49:21;16.55;;;9.75;;
48209;SDS011;33999;52.252;9.616;2022-08-20T07:52:22;15.05;;;9.38;;
48209;SDS011;33999;52.252;9.616;2022-08-20T07:55:24;13.82;;;8.98;;
48209;SDS011;33999;52.252;9.616;2022-08-20T07:58:26;13.88;;;8.68;;
48209;SDS011;33999;52.252;9.616;2022-08-20T08:01:33;17.08;;;9.43;;
48209;SDS011;33999;52.252;9.616;2022-08-20T08:04:35;13.90;;;8.43;;
48209;SDS011;33999;52.252;9.616;2022-08-20T08:07:37;14.27;;;9.23;;
48209;SDS011;33999;52.252;9.616;2022-08-20T08:10:44;15.90;;;9.32;;
48209;SDS011;33999;52.252;9.616;2022-08-20T08:14:00;13.35;;;7.80;;
48209;SDS011;33999;52.252;9.616;2022-08-20T08:17:06;12.32;;;7.88;;
48209;SDS011;33999;52.252;9.616;2022-08-20T08:20:08;14.70;;;8.88;;
48209;SDS011;33999;52.252;9.616;2022-08-20T08:23:12;14.98;;;8.98;;
48209;SDS011;33999;52.252;9.616;2022-08-20T08:26:31;13.60;;;8.68;;
48209;SDS011;33999;52.252;9.616;2022-08-20T08:29:34;13.68;;;8.13;;
48209;SDS011;33999;52.252;9.616;2022-08-20T08:32:36;14.05;;;8.60;;
48209;SDS011;33999;52.252;9.616;2022-08-20T08:36:09;14.52;;;8.30;;
48209;SDS011;33999;52.252;9.616;2022-08-20T08:39:13;12.68;;;7.78;;
48209;SDS011;33999;52.252;9.616;2022-08-20T08:42:19;13.85;;;8.30;;
48209;SDS011;33999;52.252;9.616;2022-08-20T08:45:28;14.50;;;8.55;;
48209;SDS011;33999;52.252;9.616;2022-08-20T08:48:42;15.30;;;8.60;;
48209;SDS011;33999;52.252;9.616;2022-08-20T08:51:48;13.10;;;7.93;;
48209;SDS011;33999;52.252;9.616;2022-08-20T08:54:52;14.02;;;8.23;;
48209;SDS011;33999;52.252;9.616;2022-08-20T08:57:58;11.97;;;7.60;;
48209;SDS011;33999;52.252;9.616;2022-08-20T09:01:17;12.63;;;7.15;;
48209;SDS011;33999;52.252;9.616;2022-08-20T09:04:42;10.48;;;6.43;;
48209;SDS011;33999;52.252;9.616;2022-08-20T09:07:46;12.52;;;7.82;;
48209;SDS011;33999;52.252;9.616;2022-08-20T09:10:53;12.70;;;6.88;;
48209;SDS011;33999;52.252;9.616;2022-08-20T09:13:56;11.35;;;7.20;;
48209;SDS011;33999;52.252;9.616;2022-08-20T09:16:58;15.05;;;7.57;;
48209;SDS011;33999;52.252;9.616;2022-08-20T09:20:00;11.68;;;7.15;;
48209;SDS011;33999;52.252;9.616;2022-08-20T09:23:04;13.02;;;7.57;;
48209;SDS011;33999;52.252;9.616;2022-08-20T09:26:07;13.90;;;8.00;;
48209;SDS011;33999;52.252;9.616;2022-08-20T09:29:09;11.88;;;6.82;;
48209;SDS011;33999;52.252;9.616;2022-08-20T09:32:18;14.23;;;8.35;;
48209;SDS011;33999;52.252;9.616;2022-08-20T09:35:21;11.00;;;6.95;;
48209;SDS011;33999;52.252;9.616;2022-08-20T09:38:23;11.07;;;6.50;;
48209;SDS011;33999;52.252;9.616;2022-08-20T09:41:24;12.77;;;6.88;;
48209;SDS011;33999;52.252;9.616;2022-08-20T09:44:26;12.43;;;6.93;;
48209;SDS011;33999;52.252;9.616;2022-08-20T09:47:28;12.77;;;7.50;;
48209;SDS011;33999;52.252;9.616;2022-08-20T09:50:30;12.32;;;8.10;;
48209;SDS011;33999;52.252;9.616;2022-08-20T09:53:34;13.25;;;7.82;;
48209;SDS011;33999;52.252;9.616;2022-08-20T09:56:36;10.77;;;7.50;;
48209;SDS011;33999;52.252;9.616;2022-08-20T09:59:37;8.85;;;6.03;;
48209;SDS011;33999;52.252;9.616;2022-08-20T10:02:39;9.88;;;6.45;;
48209;SDS011;33999;52.252;9.616;2022-08-20T10:05:42;11.05;;;6.82;;
48209;SDS011;33999;52.252;9.616;2022-08-20T10:08:43;10.98;;;6.10;;
48209;SDS011;33999;52.252;9.616;2022-08-20T10:11:46;9.55;;;6.20;;
48209;SDS011;33999;52.252;9.616;2022-08-20T10:14:47;9.60;;;5.90;;
48209;SDS011;33999;52.252;9.616;2022-08-20T10:17:49;9.40;;;6.05;;
48209;SDS011;33999;52.252;9.616;2022-08-20T10:20:51;9.48;;;6.32;;
48209;SDS011;33999;52.252;9.616;2022-08-20T10:23:53;10.43;;;6.63;;
48209;SDS011;33999;52.252;9.616;2022-08-20T10:26:55;8.70;;;5.70;;
48209;SDS011;33999;52.252;9.616;2022-08-20T10:29:58;10.23;;;5.68;;
48209;SDS011;33999;52.252;9.616;2022-08-20T10:33:00;8.80;;;5.82;;
48209;SDS011;33999;52.252;9.616;2022-08-20T10:36:20;10.88;;;5.95;;
48209;SDS011;33999;52.252;9.616;2022-08-20T10:39:22;10.25;;;6.60;;
48209;SDS011;33999;52.252;9.616;2022-08-20T10:42:23;9.90;;;6.28;;
48209;SDS011;33999;52.252;9.616;2022-08-20T10:45:25;10.40;;;6.50;;
48209;SDS011;33999;52.252;9.616;2022-08-20T10:48:27;16.65;;;10.05;;
48209;SDS011;33999;52.252;9.616;2022-08-20T10:51:29;23.08;;;7.75;;
48209;SDS011;33999;52.252;9.616;2022-08-20T10:54:33;23.15;;;9.25;;
48209;SDS011;33999;52.252;9.616;2022-08-20T10:57:34;15.13;;;7.90;;
48209;SDS011;33999;52.252;9.616;2022-08-20T11:00:39;14.02;;;7.60;;
48209;SDS011;33999;52.252;9.616;2022-08-20T11:03:41;11.45;;;6.93;;
48209;SDS011;33999;52.252;9.616;2022-08-20T11:06:43;11.82;;;7.07;;
48209;SDS011;33999;52.252;9.616;2022-08-20T11:09:46;12.38;;;6.65;;
48209;SDS011;33999;52.252;9.616;2022-08-20T11:12:49;11.77;;;7.15;;
48209;SDS011;33999;52.252;9.616;2022-08-20T11:15:50;10.93;;;7.07;;
48209;SDS011;33999;52.252;9.616;2022-08-20T11:18:52;9.85;;;6.70;;
48209;SDS011;33999;52.252;9.616;2022-08-20T11:21:53;9.18;;;6.38;;
48209;SDS011;33999;52.252;9.616;2022-08-20T11:24:56;7.80;;;5.40;;
48209;SDS011;33999;52.252;9.616;2022-08-20T11:27:58;7.57;;;5.40;;
48209;SDS011;33999;52.252;9.616;2022-08-20T11:31:00;8.55;;;5.53;;
48209;SDS011;33999;52.252;9.616;2022-08-20T11:34:02;8.55;;;5.55;;
48209;SDS011;33999;52.252;9.616;2022-08-20T11:37:03;6.47;;;4.68;;
48209;SDS011;33999;52.252;9.616;2022-08-20T11:40:05;6.72;;;4.40;;
48209;SDS011;33999;52.252;9.616;2022-08-20T11:43:12;6.72;;;4.60;;
48209;SDS011;33999;52.252;9.616;2022-08-20T11:46:17;5.88;;;4.25;;
48209;SDS011;33999;52.252;9.616;2022-08-20T11:49:19;6.55;;;4.70;;
48209;SDS011;33999;52.252;9.616;2022-08-20T11:52:20;6.55;;;4.90;;
48209;SDS011;33999;52.252;9.616;2022-08-20T11:55:24;8.73;;;5.00;;
48209;SDS011;33999;52.252;9.616;2022-08-20T11:58:31;8.10;;;5.32;;
48209;SDS011;33999;52.252;9.616;2022-08-20T12:01:34;7.75;;;5.60;;
48209;SDS011;33999;52.252;9.616;2022-08-20T12:04:35;8.15;;;6.00;;
48209;SDS011;33999;52.252;9.616;2022-08-20T12:07:37;8.70;;;6.25;;
48209;SDS011;33999;52.252;9.616;2022-08-20T12:10:39;8.77;;;6.47;;
48209;SDS011;33999;52.252;9.616;2022-08-20T12:13:41;8.00;;;5.88;;
48209;SDS011;33999;52.252;9.616;2022-08-20T12:16:47;9.90;;;7.70;;
48209;SDS011;33999;52.252;9.616;2022-08-20T12:19:50;10.65;;;7.80;;
48209;SDS011;33999;52.252;9.616;2022-08-20T12:22:53;10.73;;;6.85;;
48209;SDS011;33999;52.252;9.616;2022-08-20T12:25:54;10.50;;;7.43;;
48209;SDS011;33999;52.252;9.616;2022-08-20T12:28:59;9.43;;;6.80;;
48209;SDS011;33999;52.252;9.616;2022-08-20T12:32:01;8.35;;;5.90;;
48209;SDS011;33999;52.252;9.616;2022-08-20T12:35:04;7.53;;;5.45;;
48209;SDS011;33999;52.252;9.616;2022-08-20T12:38:07;10.73;;;5.90;;
48209;SDS011;33999;52.252;9.616;2022-08-20T12:41:09;8.00;;;6.18;;
48209;SDS011;33999;52.252;9.616;2022-08-20T12:44:12;8.13;;;6.20;;
48209;SDS011;33999;52.252;9.616;2022-08-20T12:47:24;8.75;;;5.70;;
48209;SDS011;33999;52.252;9.616;2022-08-20T12:50:27;11.40;;;6.53;;
48209;SDS011;33999;52.252;9.616;2022-08-20T12:53:32;9.10;;;6.47;;
48209;SDS011;33999;52.252;9.616;2022-08-20T12:56:34;10.48;;;7.00;;
48209;SDS011;33999;52.252;9.616;2022-08-20T12:59:36;10.80;;;6.65;;
48209;SDS011;33999;52.252;9.616;2022-08-20T13:02:38;11.50;;;6.57;;
48209;SDS011;33999;52.252;9.616;2022-08-20T13:05:41;9.02;;;6.57;;
48209;SDS011;33999;52.252;9.616;2022-08-20T13:08:43;10.00;;;6.45;;
48209;SDS011;33999;52.252;9.616;2022-08-20T13:11:44;9.70;;;6.60;;
48209;SDS011;33999;52.252;9.616;2022-08-20T13:14:46;9.60;;;6.43;;
48209;SDS011;33999;52.252;9.616;2022-08-20T13:17:51;9.18;;;6.03;;
48209;SDS011;33999;52.252;9.616;2022-08-20T13:20:57;12.48;;;6.65;;
48209;SDS011;33999;52.252;9.616;2022-08-20T13:23:59;10.10;;;6.32;;
48209;SDS011;33999;52.252;9.616;2022-08-20T13:27:09;8.30;;;6.07;;
48209;SDS011;33999;52.252;9.616;2022-08-20T13:30:16;8.63;;;6.55;;
48209;SDS011;33999;52.252;9.616;2022-08-20T13:33:20;8.90;;;6.28;;
48209;SDS011;33999;52.252;9.616;2022-08-20T13:36:22;8.88;;;5.60;;
48209;SDS011;33999;52.252;9.616;2022-08-20T13:39:23;9.68;;;6.25;;
48209;SDS011;33999;52.252;9.616;2022-08-20T13:42:25;6.93;;;4.70;;
48209;SDS011;33999;52.252;9.616;2022-08-20T13:45:28;7.60;;;5.03;;
48209;SDS011;33999;52.252;9.616;2022-08-20T13:48:29;6.50;;;4.57;;
48209;SDS011;33999;52.252;9.616;2022-08-20T13:51:31;6.93;;;4.03;;
48209;SDS011;33999;52.252;9.616;2022-08-20T13:54:33;9.45;;;4.55;;
48209;SDS011;33999;52.252;9.616;2022-08-20T13:57:35;6.43;;;4.28;;
48209;SDS011;33999;52.252;9.616;2022-08-20T14:00:37;6.07;;;4.22;;
48209;SDS011;33999;52.252;9.616;2022-08-20T14:03:38;6.28;;;4.32;;
48209;SDS011;33999;52.252;9.616;2022-08-20T14:06:43;6.47;;;4.70;;
48209;SDS011;33999;52.252;9.616;2022-08-20T14:09:45;5.97;;;4.32;;
48209;SDS011;33999;52.252;9.616;2022-08-20T14:12:50;8.27;;;4.40;;
48209;SDS011;33999;52.252;9.616;2022-08-20T14:15:52;8.55;;;4.95;;
48209;SDS011;33999;52.252;9.616;2022-08-20T14:18:54;6.18;;;4.40;;
48209;SDS011;33999;52.252;9.616;2022-08-20T14:21:56;6.03;;;4.03;;
48209;SDS011;33999;52.252;9.616;2022-08-20T14:24:58;5.93;;;4.18;;
48209;SDS011;33999;52.252;9.616;2022-08-20T14:28:10;7.53;;;4.15;;
48209;SDS011;33999;52.252;9.616;2022-08-20T14:31:14;5.40;;;3.78;;
48209;SDS011;33999;52.252;9.616;2022-08-20T14:34:15;7.43;;;4.78;;
48209;SDS011;33999;52.252;9.616;2022-08-20T14:37:19;6.32;;;4.30;;
48209;SDS011;33999;52.252;9.616;2022-08-20T14:40:23;6.87;;;4.20;;
48209;SDS011;33999;52.252;9.616;2022-08-20T14:43:27;7.47;;;4.03;;
48209;SDS011;33999;52.252;9.616;2022-08-20T14:46:28;6.88;;;4.50;;
48209;SDS011;33999;52.252;9.616;2022-08-20T14:49:31;8.20;;;4.43;;
48209;SDS011;33999;52.252;9.616;2022-08-20T14:52:33;6.22;;;3.92;;
48209;SDS011;33999;52.252;9.616;2022-08-20T14:55:37;7.10;;;4.05;;
48209;SDS011;33999;52.252;9.616;2022-08-20T14:58:38;6.93;;;3.42;;
48209;SDS011;33999;52.252;9.616;2022-08-20T15:01:40;8.10;;;4.72;;
48209;SDS011;33999;52.252;9.616;2022-08-20T15:04:42;6.93;;;4.00;;
48209;SDS011;33999;52.252;9.616;2022-08-20T15:07:52;7.68;;;4.30;;
48209;SDS011;33999;52.252;9.616;2022-08-20T15:10:54;6.03;;;3.53;;
48209;SDS011;33999;52.252;9.616;2022-08-20T15:13:56;5.82;;;3.97;;
48209;SDS011;33999;52.252;9.616;2022-08-20T15:16:58;6.45;;;3.97;;
48209;SDS011;33999;52.252;9.616;2022-08-20T15:20:07;6.65;;;4.32;;
48209;SDS011;33999;52.252;9.616;2022-08-20T15:23:21;11.45;;;4.38;;
48209;SDS011;33999;52.252;9.616;2022-08-20T15:26:23;7.00;;;3.63;;
48209;SDS011;33999;52.252;9.616;2022-08-20T15:29:24;5.40;;;3.63;;
48209;SDS011;33999;52.252;9.616;2022-08-20T15:32:26;7.28;;;3.85;;
48209;SDS011;33999;52.252;9.616;2022-08-20T15:35:28;6.47;;;3.97;;
48209;SDS011;33999;52.252;9.616;2022-08-20T15:38:29;7.07;;;3.70;;
48209;SDS011;33999;52.252;9.616;2022-08-20T15:41:33;5.95;;;3.75;;
48209;SDS011;33999;52.252;9.616;2022-08-20T15:44:35;7.78;;;3.83;;
48209;SDS011;33999;52.252;9.616;2022-08-20T15:54:22;6.18;;;3.88;;
48209;SDS011;33999;52.252;9.616;2022-08-20T16:00:57;5.18;;;3.28;;
48209;SDS011;33999;52.252;9.616;2022-08-20T16:07:54;5.63;;;3.40;;
48209;SDS011;33999;52.252;9.616;2022-08-20T16:14:22;5.63;;;3.40;;
48209;SDS011;33999;52.252;9.616;2022-08-20T16:18:34;6.25;;;3.50;;
48209;SDS011;33999;52.252;9.616;2022-08-20T16:21:29;5.65;;;2.58;;
48209;SDS011;33999;52.252;9.616;2022-08-20T16:24:34;4.88;;;2.35;;
48209;SDS011;33999;52.252;9.616;2022-08-20T16:27:44;5.05;;;2.33;;
48209;SDS011;33999;52.252;9.616;2022-08-20T16:31:01;5.30;;;2.33;;
48209;SDS011;33999;52.252;9.616;2022-08-20T16:41:26;5.05;;;1.98;;
48209;SDS011;33999;52.252;9.616;2022-08-20T16:44:39;5.22;;;2.10;;
48209;SDS011;33999;52.252;9.616;2022-08-20T16:47:45;4.90;;;2.10;;
48209;SDS011;33999;52.252;9.616;2022-08-20T16:50:55;5.63;;;2.35;;
48209;SDS011;33999;52.252;9.616;2022-08-20T16:53:59;7.00;;;2.13;;
48209;SDS011;33999;52.252;9.616;2022-08-20T16:57:02;4.00;;;1.90;;
48209;SDS011;33999;52.252;9.616;2022-08-20T17:03:25;4.75;;;1.90;;
48209;SDS011;33999;52.252;9.616;2022-08-20T17:06:45;6.88;;;2.22;;
48209;SDS011;33999;52.252;9.616;2022-08-20T17:09:50;4.60;;;1.90;;
48209;SDS011;33999;52.252;9.616;2022-08-20T17:13:04;7.30;;;2.33;;
48209;SDS011;33999;52.252;9.616;2022-08-20T17:19:26;8.77;;;2.40;;
48209;SDS011;33999;52.252;9.616;2022-08-20T17:22:30;6.47;;;2.35;;
48209;SDS011;33999;52.252;9.616;2022-08-20T17:25:41;5.38;;;2.20;;
48209;SDS011;33999;52.252;9.616;2022-08-20T17:28:48;5.05;;;2.08;;
48209;SDS011;33999;52.252;9.616;2022-08-20T17:32:17;5.20;;;2.38;;
48209;SDS011;33999;52.252;9.616;2022-08-20T17:35:25;5.10;;;2.33;;
48209;SDS011;33999;52.252;9.616;2022-08-20T17:38:35;4.95;;;2.28;;
48209;SDS011;33999;52.252;9.616;2022-08-20T17:41:44;4.45;;;2.25;;
48209;SDS011;33999;52.252;9.616;2022-08-20T17:44:57;4.32;;;2.00;;
48209;SDS011;33999;52.252;9.616;2022-08-20T17:48:09;6.15;;;2.50;;
48209;SDS011;33999;52.252;9.616;2022-08-20T17:51:19;5.45;;;2.38;;
48209;SDS011;33999;52.252;9.616;2022-08-20T17:54:29;5.18;;;2.28;;
48209;SDS011;33999;52.252;9.616;2022-08-20T17:57:36;4.53;;;2.47;;
48209;SDS011;33999;52.252;9.616;2022-08-20T18:00:40;6.13;;;2.42;;
48209;SDS011;33999;52.252;9.616;2022-08-20T18:03:43;5.90;;;2.42;;
48209;SDS011;33999;52.252;9.616;2022-08-20T18:06:47;4.75;;;2.25;;
48209;SDS011;33999;52.252;9.616;2022-08-20T18:10:04;3.78;;;2.15;;
48209;SDS011;33999;52.252;9.616;2022-08-20T18:16:28;5.20;;;2.30;;
48209;SDS011;33999;52.252;9.616;2022-08-20T18:22:50;6.72;;;2.35;;
48209;SDS011;33999;52.252;9.616;2022-08-20T18:26:09;6.75;;;2.25;;
48209;SDS011;33999;52.252;9.616;2022-08-20T18:29:23;5.25;;;2.50;;
48209;SDS011;33999;52.252;9.616;2022-08-20T18:32:32;5.35;;;2.28;;
48209;SDS011;33999;52.252;9.616;2022-08-20T18:35:38;5.68;;;2.00;;
48209;SDS011;33999;52.252;9.616;2022-08-20T18:44:59;5.07;;;2.03;;
48209;SDS011;33999;52.252;9.616;2022-08-20T18:48:01;4.68;;;1.90;;
48209;SDS011;33999;52.252;9.616;2022-08-20T18:51:06;6.20;;;1.95;;
48209;SDS011;33999;52.252;9.616;2022-08-20T18:54:25;5.35;;;2.10;;
48209;SDS011;33999;52.252;9.616;2022-08-20T18:57:32;4.15;;;1.92;;
48209;SDS011;33999;52.252;9.616;2022-08-20T19:00:45;4.80;;;1.90;;
48209;SDS011;33999;52.252;9.616;2022-08-20T19:03:53;4.80;;;1.88;;
48209;SDS011;33999;52.252;9.616;2022-08-20T19:07:15;7.57;;;1.92;;
48209;SDS011;33999;52.252;9.616;2022-08-20T19:17:04;4.50;;;1.67;;
48209;SDS011;33999;52.252;9.616;2022-08-20T19:20:20;3.97;;;1.60;;
48209;SDS011;33999;52.252;9.616;2022-08-20T19:23:26;5.22;;;1.80;;
48209;SDS011;33999;52.252;9.616;2022-08-20T19:26:30;5.05;;;1.90;;
48209;SDS011;33999;52.252;9.616;2022-08-20T19:29:41;6.07;;;1.98;;
48209;SDS011;33999;52.252;9.616;2022-08-20T19:32:49;4.00;;;1.60;;